Time;durP1;ratioP1;P1;durP2;ratioP2;P2;SDS_P1;SDS_P2;PMS_P1;PMS_P2;Temp;Humidity;BMP_temperature;BMP_pressure;BME280_temperature;BME280_humidity;BME280_pressure;Samples;Min_cycle;Max_cycle;Signal;HPM_P1;HPM_P2
2023/05/03 00:01:50;;;;;;;;;17.00;13.25;;;;;16.84;42.97;101828.63;5013439;28;45426;-63
2023/05/03 00:04:16;;;;;;;;;12.50;12.25;;;;;16.75;43.16;101837.22;5014890;28;45373;-63
2023/05/03 00:06:43;;;;;;;;;13.40;12.40;;;;;16.75;43.46;101836.41;5014926;28;47062;-63
2023/05/03 00:09:09;;;;;;;;;10.80;10.60;;;;;16.59;43.20;101816.47;5033377;28;45486;-63
2023/05/03 00:11:35;;;;;;;;;12.60;11.60;;;;;16.62;43.66;101826.25;4913577;28;45362;-63
2023/05/03 00:14:00;;;;;;;;;12.25;12.25;;;;;16.63;43.49;101825.19;4915280;28;45298;-63
2023/05/03 00:16:26;;;;;;;;;15.00;11.25;;;;;16.54;43.45;101824.59;4929676;28;46439;-63
2023/05/03 00:18:51;;;;;;;;;14.25;12.00;;;;;16.58;43.67;101823.09;4914319;28;45241;-62
2023/05/03 00:21:17;;;;;;;;;10.75;10.75;;;;;16.58;43.33;101816.69;4915185;28;45174;-62
2023/05/03 00:23:42;;;;;;;;;13.50;13.50;;;;;16.51;43.28;101825.94;4929631;28;45398;-63
2023/05/03 00:26:08;;;;;;;;;12.00;12.00;;;;;16.55;43.27;101831.88;4914637;28;46168;-62
2023/05/03 00:28:33;;;;;;;;;14.00;10.25;;;;;16.47;42.90;101833.00;4914536;28;45144;-62
2023/05/03 00:31:06;;;;;;;;;11.75;10.00;;;;;16.47;43.18;101834.91;4929089;28;45303;-62
2023/05/03 00:33:32;;;;;;;;;12.40;11.60;;;;;16.39;43.10;101819.41;4904509;28;45405;-64
2023/05/03 00:35:57;;;;;;;;;10.50;9.50;;;;;16.37;42.99;101830.72;4910945;28;45893;-62
2023/05/03 00:38:23;;;;;;;;;9.00;9.00;;;;;16.35;42.73;101821.78;4941457;28;45484;-62
2023/05/03 00:40:54;;;;;;;;;11.75;11.00;;;;;16.28;42.51;101837.63;4911695;28;45337;-64
2023/05/03 00:43:20;;;;;;;;;10.60;8.20;;;;;16.33;42.95;101828.63;4915231;28;45363;-63
2023/05/03 00:45:46;;;;;;;;;10.75;9.50;;;;;16.41;42.58;101831.13;4944826;28;48250;-63
2023/05/03 00:48:11;;;;;;;;;15.00;11.00;;;;;16.24;42.04;101816.97;4945342;28;45322;-63
2023/05/03 00:50:37;;;;;;;;;10.25;9.50;;;;;16.21;42.61;101822.94;4914745;28;45332;-63
2023/05/03 00:53:03;;;;;;;;;5.25;5.25;;;;;16.18;42.70;101823.41;4945434;28;45217;-63
2023/05/03 00:55:31;;;;;;;;;11.00;9.00;;;;;16.09;42.31;101823.69;4944950;28;45342;-62
2023/05/03 00:57:57;;;;;;;;;9.00;8.00;;;;;16.17;42.59;101822.53;4928431;28;45431;-63
2023/05/03 01:00:23;;;;;;;;;8.25;8.25;;;;;16.19;42.15;101814.88;4929008;28;45554;-62
2023/05/03 01:02:49;;;;;;;;;11.25;10.50;;;;;16.08;42.31;101812.81;4914607;28;45460;-64
2023/05/03 01:05:15;;;;;;;;;9.25;9.25;;;;;16.13;42.31;101804.69;4913995;28;45390;-64
2023/05/03 01:08:08;;;;;;;;;9.40;9.40;;;;;16.09;42.05;101809.81;4945236;28;45380;-64
2023/05/03 01:10:45;;;;;;;;;6.20;6.20;;;;;16.18;41.99;101809.56;4975655;28;45375;-64
2023/05/03 01:13:22;;;;;;;;;8.00;7.00;;;;;16.10;42.43;101807.88;5045672;28;45271;-64
2023/05/03 01:16:00;;;;;;;;;9.80;9.20;;;;;16.29;41.80;101811.63;5045835;28;47209;-62
2023/05/03 01:18:30;;;;;;;;;9.00;7.60;;;;;16.35;41.58;101810.72;5029030;28;45431;-64
2023/05/03 01:20:56;;;;;;;;;8.80;6.00;;;;;16.39;41.42;101802.81;5046017;28;45346;-64
2023/05/03 01:23:30;;;;;;;;;9.00;7.75;;;;;16.38;41.62;101810.25;5046265;28;45511;-64
2023/05/03 01:25:56;;;;;;;;;10.40;8.00;;;;;16.39;41.19;101805.56;5046140;28;48191;-64
2023/05/03 01:28:22;;;;;;;;;11.50;9.75;;;;;16.50;41.37;101817.84;5013963;28;45174;-64
2023/05/03 01:30:47;;;;;;;;;13.50;9.75;;;;;16.49;41.04;101816.97;5014183;28;45222;-64
2023/05/03 01:33:15;;;;;;;;;10.00;9.00;;;;;16.35;40.83;101788.56;5014163;28;45566;-61
2023/05/03 01:36:03;;;;;;;;;9.20;7.40;;;;;16.44;41.10;101822.34;5045268;28;46500;-62
2023/05/03 01:38:29;;;;;;;;;9.60;9.40;;;;;16.40;41.03;101816.41;5012607;28;45460;-64
2023/05/03 01:40:55;;;;;;;;;13.00;13.00;;;;;16.36;40.67;101819.84;5046701;28;45366;-62
2023/05/03 01:43:22;;;;;;;;;9.40;9.40;;;;;16.40;41.27;101823.88;5029356;28;45511;-64
2023/05/03 01:45:47;;;;;;;;;11.20;10.00;;;;;16.27;41.20;101810.97;5045644;28;47266;-62
2023/05/03 01:48:14;;;;;;;;;12.75;11.00;;;;;16.18;41.29;101812.31;5012918;28;45305;-62
2023/05/03 01:50:40;;;;;;;;;10.60;10.60;;;;;16.13;42.12;101830.44;5045847;28;45416;-62
2023/05/03 01:53:05;;;;;;;;;11.25;9.25;;;;;15.99;41.88;101828.84;5014171;28;45564;-62
2023/05/03 01:55:31;;;;;;;;;10.50;10.00;;;;;15.99;42.37;101832.47;5013695;28;45497;-62
2023/05/03 01:57:56;;;;;;;;;16.00;10.75;;;;;15.97;42.53;101834.59;5013920;28;45368;-62
2023/05/03 02:00:22;;;;;;;;;14.50;13.75;;;;;15.90;42.81;101830.16;4982312;28;45735;-63
2023/05/03 02:02:47;;;;;;;;;12.00;11.75;;;;;15.92;42.62;101833.56;4905387;28;46147;-63
2023/05/03 02:05:13;;;;;;;;;16.00;14.50;;;;;15.85;42.85;101828.88;4912170;28;45434;-62
2023/05/03 02:07:38;;;;;;;;;15.25;14.00;;;;;15.71;43.14;101821.72;4927807;28;46024;-62
2023/05/03 02:10:05;;;;;;;;;12.00;12.00;;;;;15.70;43.44;101836.63;4935263;28;45306;-62
2023/05/03 02:12:30;;;;;;;;;14.40;12.20;;;;;15.61;43.82;101827.72;5013821;28;45576;-62
2023/05/03 02:14:56;;;;;;;;;14.25;13.50;;;;;15.50;44.03;101825.63;5013572;28;45534;-62
2023/05/03 02:17:25;;;;;;;;;17.75;15.00;;;;;15.41;44.46;101823.13;5013529;28;45380;-62
2023/05/03 02:19:51;;;;;;;;;17.00;15.60;;;;;15.41;44.02;101822.25;5013577;28;45399;-62
2023/05/03 02:22:16;;;;;;;;;17.40;14.60;;;;;15.29;44.44;101816.56;5013972;28;45638;-62
2023/05/03 02:24:42;;;;;;;;;15.75;13.00;;;;;15.37;44.36;101824.59;5013080;28;46466;-62
2023/05/03 02:27:07;;;;;;;;;16.00;15.75;;;;;15.44;44.24;101830.97;5048062;28;45477;-62
2023/05/03 02:29:33;;;;;;;;;13.25;12.75;;;;;15.47;44.65;101829.69;5049214;28;45386;-62
2023/05/03 02:31:58;;;;;;;;;15.00;13.00;;;;;15.34;44.80;101832.50;5048809;28;45641;-62
2023/05/03 02:34:25;;;;;;;;;15.25;13.75;;;;;15.23;45.34;101831.25;5048464;28;45564;-62
2023/05/03 02:36:51;;;;;;;;;15.80;13.00;;;;;15.24;45.35;101827.41;5016611;28;45480;-62
2023/05/03 02:39:16;;;;;;;;;15.75;13.75;;;;;15.00;45.63;101808.53;5017043;28;45740;-62
2023/05/03 02:41:42;;;;;;;;;17.75;14.75;;;;;15.09;45.28;101827.69;5017422;28;45299;-62
2023/05/03 02:44:07;;;;;;;;;17.25;12.75;;;;;15.00;45.50;101825.13;5048520;28;48057;-62
2023/05/03 02:46:33;;;;;;;;;16.75;16.75;;;;;15.14;45.49;101828.72;5016940;28;45278;-62
2023/05/03 02:48:58;;;;;;;;;18.00;17.50;;;;;15.14;45.47;101827.84;5016948;28;45649;-62
2023/05/03 02:51:25;;;;;;;;;19.25;14.25;;;;;14.97;45.52;101817.28;5015082;28;45480;-63
2023/05/03 02:53:51;;;;;;;;;18.80;15.00;;;;;15.02;45.83;101834.06;5016535;28;46396;-62
2023/05/03 02:56:16;;;;;;;;;15.50;14.25;;;;;14.84;46.36;101833.88;5016851;28;45437;-62
2023/05/03 02:58:42;;;;;;;;;16.00;14.00;;;;;14.84;45.81;101834.72;5016635;28;45490;-62
2023/05/03 03:01:07;;;;;;;;;15.25;11.75;;;;;14.82;45.78;101824.94;5048576;28;45397;-63
2023/05/03 03:03:33;;;;;;;;;16.00;14.25;;;;;14.90;45.64;101825.56;5016530;28;45391;-62
2023/05/03 03:05:58;;;;;;;;;15.25;14.50;;;;;14.81;45.98;101823.22;5048229;28;45557;-62
2023/05/03 03:08:24;;;;;;;;;17.50;16.50;;;;;14.96;46.05;101820.25;5016596;28;45352;-62
2023/05/03 03:10:49;;;;;;;;;19.00;15.25;;;;;15.04;45.54;101814.47;4996273;28;45430;-62
2023/05/03 03:13:15;;;;;;;;;19.75;13.25;;;;;14.86;45.43;101806.88;4915746;28;46338;-62
2023/05/03 03:15:40;;;;;;;;;14.50;13.50;;;;;14.86;45.60;101809.63;4930365;28;45433;-62
2023/05/03 03:18:06;;;;;;;;;16.50;16.00;;;;;14.77;45.90;101789.66;4915842;28;45357;-62
2023/05/03 03:20:31;;;;;;;;;18.25;14.50;;;;;14.95;45.48;101799.19;4947138;28;45382;-62
2023/05/03 03:22:57;;;;;;;;;14.50;14.50;;;;;14.83;45.84;101791.56;4946149;28;47611;-62
2023/05/03 03:25:22;;;;;;;;;15.75;15.00;;;;;14.88;45.93;101791.78;4915574;28;45303;-62
2023/05/03 03:27:47;;;;;;;;;16.75;14.00;;;;;14.98;45.79;101791.31;4915670;28;45302;-62
2023/05/03 03:30:13;;;;;;;;;17.75;16.00;;;;;14.94;45.25;101794.75;4915970;28;45277;-62
2023/05/03 03:32:39;;;;;;;;;14.75;13.50;;;;;14.85;46.11;101786.69;4915665;28;46146;-62
2023/05/03 03:35:05;;;;;;;;;15.60;15.60;;;;;14.81;45.52;101781.78;4946095;28;45471;-62
2023/05/03 03:37:30;;;;;;;;;19.75;19.50;;;;;14.79;45.76;101789.44;4945101;28;45616;-63
2023/05/03 03:39:56;;;;;;;;;23.25;15.75;;;;;14.75;45.89;101784.38;4915713;28;45316;-62
2023/05/03 03:42:22;;;;;;;;;18.50;14.25;;;;;14.79;45.88;101776.50;4914964;28;46847;-62
2023/05/03 03:44:48;;;;;;;;;14.80;12.00;;;;;14.82;46.17;101775.19;4930307;28;45801;-62
2023/05/03 03:47:14;;;;;;;;;16.00;15.50;;;;;14.71;46.37;101779.44;4914049;28;45421;-62
2023/05/03 03:49:39;;;;;;;;;16.50;14.50;;;;;14.63;46.76;101778.59;4915862;28;45853;-62
2023/05/03 03:52:05;;;;;;;;;17.00;12.00;;;;;14.89;45.96;101781.56;4915322;28;45676;-62
2023/05/03 03:54:31;;;;;;;;;12.50;12.25;;;;;14.94;45.42;101767.94;4915387;28;45422;-62
2023/05/03 03:56:56;;;;;;;;;19.25;16.50;;;;;15.05;45.64;101769.19;4915538;28;45401;-62
2023/05/03 03:59:22;;;;;;;;;17.50;17.00;;;;;14.98;45.33;101771.13;4929866;28;45551;-62
2023/05/03 04:01:47;;;;;;;;;15.50;15.25;;;;;14.94;45.85;101783.69;4915106;28;45952;-63
2023/05/03 04:04:13;;;;;;;;;19.25;14.75;;;;;14.83;46.00;101777.75;4915239;28;45372;-62
2023/05/03 04:06:38;;;;;;;;;15.00;15.00;;;;;14.88;45.62;101764.13;4929891;28;45321;-62
2023/05/03 04:09:04;;;;;;;;;20.75;17.25;;;;;14.87;45.83;101770.72;4915155;28;45334;-63
2023/05/03 04:11:29;;;;;;;;;19.80;15.60;;;;;14.63;46.37;101769.47;5007277;28;45597;-64
2023/05/03 04:13:55;;;;;;;;;15.75;15.50;;;;;14.54;46.45;101760.53;5047852;28;45368;-63
2023/05/03 04:16:20;;;;;;;;;17.00;17.00;;;;;14.52;46.71;101783.91;5047204;28;45352;-64
2023/05/03 04:18:46;;;;;;;;;19.75;16.75;;;;;14.46;47.06;101782.88;5047105;28;45590;-63
2023/05/03 04:21:11;;;;;;;;;17.75;15.50;;;;;14.49;46.70;101775.00;5015287;28;46480;-62
2023/05/03 04:23:38;;;;;;;;;17.00;13.50;;;;;14.55;46.55;101765.00;5014708;28;45475;-65
2023/05/03 04:26:03;;;;;;;;;16.80;15.20;;;;;14.56;46.67;101772.22;5015289;28;45497;-64
2023/05/03 04:28:29;;;;;;;;;18.00;15.50;;;;;14.60;46.86;101778.16;5015084;28;45436;-64
2023/05/03 04:30:57;;;;;;;;;15.50;15.50;;;;;14.46;46.66;101774.56;5015625;28;46317;-64
2023/05/03 04:33:22;;;;;;;;;19.20;16.60;;;;;14.51;47.02;101780.28;5014797;28;45386;-64
2023/05/03 04:35:49;;;;;;;;;23.75;22.75;;;;;14.54;46.96;101779.88;5015027;28;45310;-64
2023/05/03 04:38:16;;;;;;;;;24.20;22.20;;;;;14.43;47.32;101775.00;5015379;28;45360;-64
2023/05/03 04:40:41;;;;;;;;;25.40;20.40;;;;;14.42;46.89;101784.34;5014507;28;47457;-63
2023/05/03 04:43:07;;;;;;;;;26.50;21.75;;;;;14.44;46.95;101771.16;5014942;28;45239;-62
2023/05/03 04:45:33;;;;;;;;;24.75;23.75;;;;;14.54;46.88;101779.88;5015251;28;45508;-63
2023/05/03 04:47:58;;;;;;;;;23.20;19.20;;;;;14.61;46.85;101782.63;5014963;28;45539;-63
2023/05/03 04:50:24;;;;;;;;;19.00;18.50;;;;;14.67;46.19;101781.78;5014358;28;45420;-63
2023/05/03 04:52:50;;;;;;;;;22.80;18.80;;;;;14.72;46.25;101767.31;5014390;28;45440;-63
2023/05/03 04:55:15;;;;;;;;;16.25;16.25;;;;;14.64;46.32;101763.69;5014968;28;45387;-63
2023/05/03 04:57:41;;;;;;;;;22.00;18.75;;;;;14.61;46.88;101777.09;5014954;28;45405;-63
2023/05/03 05:00:10;;;;;;;;;19.50;17.25;;;;;14.55;46.39;101778.81;5014646;28;45394;-63
2023/05/03 05:02:36;;;;;;;;;17.20;15.20;;;;;14.37;47.40;101790.50;5046047;28;45452;-64
2023/05/03 05:05:02;;;;;;;;;23.75;18.50;;;;;14.36;47.26;101788.81;5014307;28;45359;-64
2023/05/03 05:07:28;;;;;;;;;13.50;13.50;;;;;14.52;46.71;101787.53;4911016;28;45567;-64
2023/05/03 05:09:54;;;;;;;;;15.40;14.00;;;;;14.66;46.54;101785.59;4940368;28;45504;-63
2023/05/03 05:12:19;;;;;;;;;16.50;15.00;;;;;14.69;46.62;101774.13;5014780;28;45400;-63
2023/05/03 05:14:45;;;;;;;;;17.75;17.25;;;;;14.58;46.19;101764.56;5046495;28;45393;-63
2023/05/03 05:17:10;;;;;;;;;29.50;23.50;;;;;14.76;46.81;101796.25;5046732;28;45555;-64
2023/05/03 05:19:36;;;;;;;;;14.00;14.00;;;;;14.76;46.31;101788.81;5014693;28;46435;-64
2023/05/03 05:22:01;;;;;;;;;19.25;14.75;;;;;14.78;46.32;101788.59;5046253;28;45720;-64
2023/05/03 05:24:27;;;;;;;;;16.00;15.00;;;;;14.85;46.53;101783.06;5014888;28;45399;-66
2023/05/03 05:26:53;;;;;;;;;16.25;15.25;;;;;14.81;46.85;101779.88;5014548;28;45182;-64
2023/05/03 05:29:18;;;;;;;;;16.25;15.75;;;;;14.81;46.36;101782.66;5014111;28;46649;-64
2023/05/03 05:31:43;;;;;;;;;20.75;16.00;;;;;14.87;46.01;101778.16;5046294;28;45226;-63
2023/05/03 05:34:09;;;;;;;;;19.25;15.75;;;;;14.94;45.91;101779.00;5045856;28;45274;-63
2023/05/03 05:36:35;;;;;;;;;17.00;16.00;;;;;14.88;46.26;101757.75;5046602;28;45373;-63
2023/05/03 05:39:01;;;;;;;;;13.75;13.25;;;;;15.01;46.02;101779.00;5013860;28;46464;-65
2023/05/03 05:41:26;;;;;;;;;17.50;16.00;;;;;14.96;45.34;101770.50;5014402;28;45267;-65
2023/05/03 05:43:52;;;;;;;;;16.50;15.75;;;;;15.00;46.04;101782.81;5014528;28;45363;-65
2023/05/03 05:46:19;;;;;;;;;13.75;13.75;;;;;15.00;46.13;101778.13;5014596;28;45298;-66
2023/05/03 05:48:45;;;;;;;;;16.20;13.00;;;;;14.94;45.76;101787.28;5014050;28;45546;-63
2023/05/03 05:51:10;;;;;;;;;15.00;13.75;;;;;14.84;46.10;101784.13;5013881;28;45291;-65
2023/05/03 05:53:36;;;;;;;;;13.50;13.50;;;;;14.70;46.59;101789.66;5014005;28;45393;-63
2023/05/03 05:56:02;;;;;;;;;16.00;14.75;;;;;14.76;46.46;101791.59;5014373;28;45745;-66
2023/05/03 05:58:27;;;;;;;;;21.75;13.50;;;;;14.75;46.65;101786.25;5014118;28;46415;-64
2023/05/03 06:00:57;;;;;;;;;16.50;15.00;;;;;14.77;46.24;101784.13;5015123;28;45481;-63
2023/05/03 06:03:22;;;;;;;;;15.00;14.20;;;;;14.88;46.44;101793.66;5017245;28;45429;-63
2023/05/03 06:05:48;;;;;;;;;14.00;13.00;;;;;14.74;46.11;101790.94;5017993;28;45445;-64
2023/05/03 06:08:13;;;;;;;;;17.00;14.50;;;;;14.81;46.23;101796.47;4907474;28;46172;-64
2023/05/03 06:10:43;;;;;;;;;16.00;14.00;;;;;14.76;46.51;101807.31;4968288;28;45360;-65
2023/05/03 06:13:09;;;;;;;;;21.60;15.60;;;;;14.75;46.41;101811.13;5048012;28;45313;-64
2023/05/03 06:15:34;;;;;;;;;18.00;13.00;;;;;14.76;46.44;101799.88;5016611;28;45264;-65
2023/05/03 06:18:00;;;;;;;;;18.00;15.75;;;;;14.94;46.37;101806.63;5049373;28;47080;-64
2023/05/03 06:20:25;;;;;;;;;14.50;14.00;;;;;14.87;45.95;101798.38;5032282;28;45389;-64
2023/05/03 06:22:51;;;;;;;;;15.75;14.00;;;;;14.90;46.53;101799.84;5017585;28;45374;-64
2023/05/03 06:25:16;;;;;;;;;14.50;13.25;;;;;14.93;46.26;101793.88;5017587;28;45415;-64
2023/05/03 06:27:42;;;;;;;;;16.75;15.50;;;;;14.86;45.79;101782.00;5016905;28;45428;-64
2023/05/03 06:30:09;;;;;;;;;16.50;14.25;;;;;14.87;46.35;101791.97;5017156;28;45410;-65
2023/05/03 06:32:34;;;;;;;;;14.20;14.00;;;;;14.98;46.44;101790.47;5047988;28;45543;-66
2023/05/03 06:35:00;;;;;;;;;17.25;13.50;;;;;14.90;46.23;101764.75;5017331;28;45440;-67
2023/05/03 06:37:26;;;;;;;;;16.20;16.20;;;;;15.20;45.30;101782.75;5031610;28;47175;-60
2023/05/03 06:39:51;;;;;;;;;19.25;16.50;;;;;15.16;45.22;101784.28;4898028;28;45444;-60
2023/05/03 06:42:17;;;;;;;;;19.50;17.00;;;;;15.07;45.32;101772.59;4910786;28;45720;-60
2023/05/03 06:44:42;;;;;;;;;17.75;15.50;;;;;15.18;45.93;101791.28;4916711;28;45630;-61
2023/05/03 06:47:10;;;;;;;;;19.25;18.25;;;;;15.06;45.44;101761.75;4949518;28;47367;-59
2023/05/03 06:49:36;;;;;;;;;19.40;17.60;;;;;15.25;45.64;101791.25;4922670;28;45456;-59
2023/05/03 06:52:01;;;;;;;;;21.00;17.50;;;;;15.34;45.20;101789.09;4977921;28;45370;-61
2023/05/03 06:54:27;;;;;;;;;22.50;15.25;;;;;15.37;45.70;101793.34;4914216;28;45620;-62
2023/05/03 06:56:52;;;;;;;;;16.00;15.00;;;;;15.37;45.39;101785.06;4914513;28;45419;-61
2023/05/03 06:59:18;;;;;;;;;16.50;15.25;;;;;15.33;45.97;101792.94;4914205;28;45509;-61
2023/05/03 07:01:43;;;;;;;;;18.00;18.00;;;;;15.38;45.92;101781.22;4922665;28;45479;-61
2023/05/03 07:04:09;;;;;;;;;15.75;15.50;;;;;15.39;45.50;101774.59;4981668;28;45527;-62
2023/05/03 07:06:34;;;;;;;;;21.00;17.00;;;;;15.41;44.84;101773.31;4933346;28;46038;-62
2023/05/03 07:09:00;;;;;;;;;16.75;15.00;;;;;15.32;45.34;101778.25;4964082;28;46125;-61
2023/05/03 07:11:25;;;;;;;;;19.75;17.00;;;;;15.30;45.53;101779.53;4923971;28;45462;-61
2023/05/03 07:13:52;;;;;;;;;17.00;16.75;;;;;15.33;45.25;101776.34;4929106;28;45627;-64
2023/05/03 07:16:20;;;;;;;;;20.20;19.20;;;;;15.42;45.42;101777.78;4931770;28;47327;-62
2023/05/03 07:18:46;;;;;;;;;17.40;16.40;;;;;15.41;45.66;101778.00;4914223;28;45475;-64
2023/05/03 07:21:12;;;;;;;;;18.80;16.40;;;;;15.43;45.03;101770.34;4929502;28;45409;-62
2023/05/03 07:23:38;;;;;;;;;18.80;16.80;;;;;15.51;45.61;101766.47;4914747;28;45471;-63
2023/05/03 07:26:04;;;;;;;;;16.60;16.00;;;;;15.53;45.12;101767.94;4898311;28;46625;-64
2023/05/03 07:28:29;;;;;;;;;24.00;20.75;;;;;15.41;44.99;101766.94;4912812;28;45473;-65
2023/05/03 07:30:55;;;;;;;;;20.00;18.25;;;;;15.42;45.67;101763.13;4915003;28;45510;-61
2023/05/03 07:33:21;;;;;;;;;23.50;19.25;;;;;15.44;45.44;101766.50;4913333;28;45802;-62
2023/05/03 07:35:47;;;;;;;;;20.50;18.25;;;;;15.56;45.10;101764.75;4914774;28;45549;-62
2023/05/03 07:38:12;;;;;;;;;19.80;18.60;;;;;15.65;44.86;101759.81;4913141;28;45388;-62
2023/05/03 07:40:38;;;;;;;;;17.50;16.50;;;;;15.75;44.79;101755.69;5003990;28;45520;-63
2023/05/03 07:43:04;;;;;;;;;21.00;17.25;;;;;15.85;44.52;101751.38;4933915;28;45304;-62
2023/05/03 07:45:29;;;;;;;;;19.75;18.00;;;;;15.74;44.84;101721.63;4933935;28;45528;-62
2023/05/03 07:47:58;;;;;;;;;19.50;18.00;;;;;15.77;44.40;101731.41;4933605;28;45429;-62
2023/05/03 07:50:23;;;;;;;;;19.00;16.60;;;;;15.92;44.70;101740.31;4964418;28;45477;-62
2023/05/03 07:52:52;;;;;;;;;19.75;16.75;;;;;15.91;44.29;101732.19;4914219;28;45865;-61
2023/05/03 07:55:18;;;;;;;;;21.00;21.00;;;;;15.91;44.54;101726.63;4926887;28;45638;-59
2023/05/03 07:57:44;;;;;;;;;20.00;16.20;;;;;15.95;45.03;101723.22;4932180;28;45695;-60
2023/05/03 08:00:11;;;;;;;;;20.00;16.50;;;;;16.11;44.32;101710.75;4932515;28;45348;-63
2023/05/03 08:02:36;;;;;;;;;22.80;18.60;;;;;16.18;44.23;101715.38;4931428;28;45539;-62
2023/05/03 08:05:04;;;;;;;;;17.00;15.50;;;;;16.24;44.00;101715.31;4931352;28;46153;-62
2023/05/03 08:07:30;;;;;;;;;16.60;14.40;;;;;16.34;43.88;101703.72;4933483;28;45351;-62
2023/05/03 08:09:57;;;;;;;;;17.00;15.00;;;;;16.32;43.56;101689.25;4964297;28;45814;-62
2023/05/03 08:12:24;;;;;;;;;18.40;17.20;;;;;16.51;43.73;101700.38;4919079;28;45499;-62
2023/05/03 08:14:51;;;;;;;;;17.20;17.00;;;;;16.58;43.78;101701.16;4914079;28;46349;-63
2023/05/03 08:17:17;;;;;;;;;19.00;16.40;;;;;16.60;43.34;101701.75;4931731;28;46273;-63
2023/05/03 08:19:43;;;;;;;;;17.20;16.00;;;;;16.54;43.51;101702.69;4929178;28;45461;-63
2023/05/03 08:22:11;;;;;;;;;15.50;12.50;;;;;16.57;43.65;101693.94;4914558;28;45608;-63
2023/05/03 08:24:37;;;;;;;;;21.60;20.00;;;;;16.61;42.97;101694.31;4911757;28;46403;-63
2023/05/03 08:27:03;;;;;;;;;18.60;17.60;;;;;16.66;43.30;101700.84;4928771;28;45320;-63
2023/05/03 08:29:29;;;;;;;;;17.60;17.60;;;;;16.82;43.10;101692.16;4922469;28;45319;-64
2023/05/03 08:31:54;;;;;;;;;15.00;14.50;;;;;16.71;42.55;101691.84;4933779;28;45306;-62
2023/05/03 08:34:20;;;;;;;;;14.25;14.25;;;;;16.72;42.78;101695.47;4963681;28;48070;-62
2023/05/03 08:36:45;;;;;;;;;21.25;18.00;;;;;16.67;43.06;101696.16;4964559;28;45355;-63
2023/05/03 08:39:11;;;;;;;;;15.00;15.00;;;;;16.69;42.82;101690.41;4911274;28;45347;-62
2023/05/03 08:41:36;;;;;;;;;17.50;17.50;;;;;16.77;42.84;101692.88;4922791;28;45416;-62
2023/05/03 08:44:04;;;;;;;;;17.00;16.00;;;;;16.86;42.87;101688.69;4964029;28;46433;-63
2023/05/03 08:46:29;;;;;;;;;17.80;14.80;;;;;16.93;42.84;101700.56;4964142;28;45511;-63
2023/05/03 08:48:55;;;;;;;;;17.25;13.25;;;;;16.96;42.43;101677.06;4933731;28;45879;-63
2023/05/03 08:51:21;;;;;;;;;14.25;14.25;;;;;17.01;42.07;101690.22;4932023;28;45376;-64
2023/05/03 08:53:47;;;;;;;;;20.80;18.00;;;;;17.06;42.58;101680.19;4940916;28;45631;-64
2023/05/03 08:56:26;;;;;;;;;14.75;12.00;;;;;17.11;42.85;101673.06;4913877;28;45423;-60
2023/05/03 08:58:52;;;;;;;;;17.80;15.20;;;;;17.44;42.53;101683.72;4914663;28;45924;-61
2023/05/03 09:01:19;;;;;;;;;17.60;14.80;;;;;17.68;41.86;101682.94;4928528;28;45384;-63
2023/05/03 09:03:48;;;;;;;;;18.00;13.60;;;;;17.69;41.50;101662.44;4914127;28;46755;-62
2023/05/03 09:06:26;;;;;;;;;15.80;13.20;;;;;17.88;41.06;101677.09;4909937;28;46519;-61
2023/05/03 09:08:52;;;;;;;;;13.40;11.20;;;;;17.95;40.97;101680.59;4959184;28;45474;-61
2023/05/03 09:11:22;;;;;;;;;14.60;13.60;;;;;18.01;40.76;101678.78;4942394;28;45627;-63
2023/05/03 09:13:49;;;;;;;;;10.40;9.20;;;;;17.99;40.94;101670.69;4912621;28;45826;-62
2023/05/03 09:16:28;;;;;;;;;11.00;10.80;;;;;18.11;40.78;101667.97;4911730;28;45353;-62
2023/05/03 09:19:01;;;;;;;;;13.60;12.00;;;;;18.16;40.46;101653.38;4915221;28;45522;-61
2023/05/03 09:21:32;;;;;;;;;15.00;14.60;;;;;18.34;40.01;101676.53;4885035;28;45379;-62
2023/05/03 09:23:58;;;;;;;;;17.80;15.80;;;;;18.29;39.91;101655.91;4904671;28;45811;-59
2023/05/03 09:26:33;;;;;;;;;13.75;12.50;;;;;18.36;40.37;101663.28;4925245;28;45557;-60
2023/05/03 09:29:00;;;;;;;;;12.00;12.00;;;;;18.45;40.15;101649.84;5043093;28;45785;-60
2023/05/03 09:31:26;;;;;;;;;13.60;12.60;;;;;18.56;39.89;101666.50;4920539;28;45635;-63
2023/05/03 09:33:52;;;;;;;;;12.20;11.20;;;;;18.58;39.31;101663.50;4955566;28;46293;-61
2023/05/03 09:36:17;;;;;;;;;15.50;14.50;;;;;18.67;39.44;101659.25;5014703;28;45314;-62
2023/05/03 09:38:43;;;;;;;;;14.50;14.50;;;;;18.76;38.68;101665.28;4975583;28;45547;-61
2023/05/03 09:41:09;;;;;;;;;12.00;12.00;;;;;18.65;38.64;101655.00;4916992;28;45439;-61
2023/05/03 09:43:35;;;;;;;;;15.20;14.40;;;;;18.76;39.22;101659.72;4959073;28;45538;-62
2023/05/03 09:46:08;;;;;;;;;11.50;11.25;;;;;18.67;38.90;101662.03;4964872;28;45539;-62
2023/05/03 09:48:35;;;;;;;;;12.00;12.00;;;;;18.78;39.39;101657.53;4933903;28;45514;-61
2023/05/03 09:51:00;;;;;;;;;17.00;15.60;;;;;18.88;39.10;101650.50;4949224;28;45624;-62
2023/05/03 09:53:25;;;;;;;;;13.00;13.00;;;;;18.98;39.13;101655.44;4962793;28;45731;-62
2023/05/03 09:55:51;;;;;;;;;14.25;12.75;;;;;19.00;38.88;101662.41;4930603;28;45476;-61
2023/05/03 09:58:17;;;;;;;;;17.00;14.25;;;;;18.92;38.91;101646.97;4932906;28;45461;-62
2023/05/03 10:00:45;;;;;;;;;14.50;13.00;;;;;18.97;39.04;101646.22;4948818;28;45445;-63
2023/05/03 10:03:11;;;;;;;;;12.00;11.40;;;;;18.98;38.98;101653.47;4934214;28;45427;-63
2023/05/03 10:05:47;;;;;;;;;7.40;7.20;;;;;18.91;38.97;101634.16;4962671;28;46259;-62
2023/05/03 10:08:31;;;;;;;;;14.40;13.60;;;;;19.01;39.03;101646.59;4946838;28;45477;-61
2023/05/03 10:10:57;;;;;;;;;12.80;11.60;;;;;19.10;39.46;101640.41;4927946;28;45386;-61
2023/05/03 10:13:22;;;;;;;;;13.75;11.50;;;;;19.26;38.95;101640.69;5011433;28;45744;-61
2023/05/03 10:15:55;;;;;;;;;12.25;11.00;;;;;19.26;38.84;101632.34;4916800;28;46155;-62
2023/05/03 10:18:21;;;;;;;;;13.80;13.80;;;;;19.35;39.09;101624.44;4942388;28;45301;-61
2023/05/03 10:20:56;;;;;;;;;16.25;12.00;;;;;19.43;39.18;101631.56;4963808;28;45628;-61
2023/05/03 10:23:21;;;;;;;;;12.40;12.40;;;;;19.43;38.97;101626.00;4932663;28;45792;-60
2023/05/03 10:26:06;;;;;;;;;14.25;11.75;;;;;19.53;38.55;101631.72;4885411;28;45788;-60
2023/05/03 10:28:36;;;;;;;;;21.60;17.60;;;;;19.61;38.83;101620.19;4913368;28;45410;-60
2023/05/03 10:31:01;;;;;;;;;10.80;10.40;;;;;19.69;38.40;101627.28;4916796;28;45538;-61
2023/05/03 10:33:27;;;;;;;;;12.25;12.25;;;;;19.62;38.64;101609.88;4932372;28;46154;-61
2023/05/03 10:35:53;;;;;;;;;14.20;12.80;;;;;19.68;38.87;101596.91;4932455;28;45458;-62
2023/05/03 10:38:23;;;;;;;;;12.00;11.00;;;;;19.77;38.85;101617.66;4951406;28;45682;-64
2023/05/03 10:40:48;;;;;;;;;15.20;13.80;;;;;19.80;38.58;101614.34;4928407;28;45440;-64
2023/05/03 10:43:31;;;;;;;;;13.00;13.00;;;;;19.86;38.65;101599.41;4918464;28;46007;-61
2023/05/03 10:45:57;;;;;;;;;16.20;12.40;;;;;20.08;38.71;101595.06;4957510;28;45492;-61
2023/05/03 10:48:23;;;;;;;;;13.80;12.80;;;;;20.05;38.25;101588.03;4913821;28;45564;-61
2023/05/03 10:50:50;;;;;;;;;3.75;3.00;;;;;20.05;38.17;101585.25;4914304;28;45534;-61
2023/05/03 10:53:37;;;;;;;;;13.80;13.00;;;;;20.10;38.73;101579.75;4913687;28;46911;-61
2023/05/03 10:56:07;;;;;;;;;12.80;12.00;;;;;20.19;38.45;101569.03;4917051;28;45994;-63
2023/05/03 10:58:42;;;;;;;;;11.00;11.00;;;;;20.30;38.06;101583.94;4915170;28;45751;-60
2023/05/03 11:01:12;;;;;;;;;15.40;13.80;;;;;20.42;38.28;101573.53;4913253;28;45561;-61
2023/05/03 11:04:15;;;;;;;;;14.20;13.20;;;;;20.55;38.08;101579.81;4913312;28;45640;-61
2023/05/03 11:06:41;;;;;;;;;11.80;10.80;;;;;20.38;37.76;101552.81;4926567;28;45546;-62
2023/05/03 11:09:07;;;;;;;;;15.25;14.75;;;;;20.54;38.51;101569.78;4944877;28;45443;-61